»·PEaware :: N802TZ KSMX-KSBA

N802TZ :: KSMX-KSBA

FLIGHT INFORMATION

Flight Status: Arrived
Operator: Privately registered:
United States
More flights under this callsign
Pilot: Vinicius U. (17612)
Aircraft: PIPER PA-46-310/350P MALIBU MIRAGE
(PA46)
More flights by this aircraft type
Origin: KSMX Santa Maria Pub/Capt Hancock
United States
Destination: KSBA Santa Barbara Mun
United States
More flights between these airports :: More routes between these airports
Route: GVO
File this flight plan on PilotEdge
Remarks:
Altitude:
(Current/Filed)
3,500ft
Speed:
(Current/Filed)
180kts
Departed: 07-Jan-18 09:50 AM
Arrived: 07-Jan-18 10:14 AM
Distance/Time
Traveled:
42nm/0:23
Distance/Time
To Go:
Arrived

Flight Plot

Page will automatically refresh every two minutes.


Map Options




Map Legend


Flown Route
Filed Route
Departure Airport
Arrival Airport
Navaid (VOR, NDB)
Fix

Horizontal Profiles

Position Reports

Time Latitude Longitude Heading Altitude Ground
Speed
07-Jan-18 09:38 34.892780 -120.455701 179 265ft 0kts
07-Jan-18 09:39 34.892780 -120.455701 179 265ft 0kts
07-Jan-18 09:40 34.892780 -120.455701 179 265ft 0kts
07-Jan-18 09:41 34.892780 -120.455701 179 265ft 0kts
07-Jan-18 09:42 34.892780 -120.455701 179 265ft 0kts
07-Jan-18 09:43 34.892780 -120.455701 179 265ft 0kts
07-Jan-18 09:44 34.892780 -120.455701 179 265ft 0kts
07-Jan-18 09:45 34.892780 -120.455701 179 265ft 0kts
07-Jan-18 09:46 34.892778 -120.455701 179 265ft 0kts
07-Jan-18 09:47 34.892775 -120.455701 179 265ft 0kts
07-Jan-18 09:48 34.892773 -120.455701 179 265ft 0kts
07-Jan-18 09:49 34.893062 -120.455645 33 265ft 3kts
07-Jan-18 09:50 34.891731 -120.452709 90 265ft 15kts
07-Jan-18 09:51 34.892287 -120.446420 48 265ft 10kts
07-Jan-18 09:52 34.892343 -120.446343 47 265ft 0kts
07-Jan-18 09:53 34.892344 -120.446342 47 265ft 0kts
07-Jan-18 09:54 34.892345 -120.446341 47 265ft 0kts
07-Jan-18 09:55 34.892430 -120.446225 47 265ft 3kts
07-Jan-18 09:56 34.902648 -120.457630 313 454ft 107kts
07-Jan-18 09:57 34.903883 -120.485562 176 1410ft 126kts
07-Jan-18 09:58 34.874897 -120.458680 140 2253ft 137kts
07-Jan-18 09:59 34.845016 -120.428819 140 3056ft 140kts
07-Jan-18 10:00 34.813709 -120.397528 140 3500ft 156kts
07-Jan-18 10:01 34.779994 -120.360672 135 3499ft 165kts
07-Jan-18 10:02 34.748043 -120.321260 135 3497ft 162kts
07-Jan-18 10:03 34.716429 -120.282229 135 3512ft 160kts
07-Jan-18 10:04 34.686928 -120.245846 135 4447ft 146kts
07-Jan-18 10:05 34.658978 -120.210962 134 5370ft 143kts
07-Jan-18 10:06 34.629769 -120.174442 135 5499ft 151kts
07-Jan-18 10:07 34.600962 -120.138178 135 5497ft 146kts
07-Jan-18 10:08 34.570805 -120.100376 135 4866ft 161kts
07-Jan-18 10:09 34.545975 -120.058525 175 4320ft 154kts
07-Jan-18 10:10 34.511288 -120.077132 149 4145ft 146kts
07-Jan-18 10:11 34.481872 -120.040427 125 3660ft 157kts
07-Jan-18 10:12 34.459887 -119.996636 115 3424ft 149kts
07-Jan-18 10:13 34.437373 -119.954983 120 2864ft 157kts
07-Jan-18 10:14 34.424565 -119.904664 120 2366ft 156kts
07-Jan-18 10:15 34.397040 -119.923052 264 1914ft 153kts
07-Jan-18 10:16 34.422031 -119.960525 353 1438ft 153kts
07-Jan-18 10:17 34.443597 -119.921964 72 1110ft 145kts
07-Jan-18 10:18 34.451433 -119.880300 94 911ft 120kts
07-Jan-18 10:19 34.440414 -119.844579 165 335ft 115kts
07-Jan-18 10:20 34.420177 -119.838335 165 14ft 23kts
07-Jan-18 10:21 34.419664 -119.837497 75 14ft 0kts
07-Jan-18 10:22 34.419665 -119.837496 75 14ft 0kts
07-Jan-18 10:23 34.419665 -119.837494 75 14ft 0kts
07-Jan-18 10:24 34.419963 -119.836152 43 14ft 9kts
07-Jan-18 10:25 34.423790 -119.837225 345 14ft 17kts
07-Jan-18 10:26 34.426443 -119.838092 344 14ft 0kts
07-Jan-18 10:27 34.429489 -119.838460 345 14ft 24kts
07-Jan-18 10:28 34.432022 -119.835654 66 14ft 14kts
07-Jan-18 10:29 34.432671 -119.835606 339 14ft 0kts
07-Jan-18 10:30 34.432671 -119.835606 339 14ft 0kts
07-Jan-18 10:31 34.432671 -119.835606 339 14ft 0kts
07-Jan-18 10:32 34.432671 -119.835606 339 14ft 0kts
07-Jan-18 10:33 34.432671 -119.835606 339 14ft 0kts
07-Jan-18 10:34 34.432671 -119.835606 339 14ft 0kts

Navigation Log

Ident Type
1. KSMX Airport
2. GVO Navaid
3. KSBA Airport